Time;durP1;ratioP1;P1;durP2;ratioP2;P2;SDS_P1;SDS_P2;PMS_P1;PMS_P2;Temp;Humidity;BMP_temperature;BMP_pressure;BME280_temperature;BME280_humidity;BME280_pressure;Samples;Min_cycle;Max_cycle;Signal;HPM_P1;HPM_P2
2021/08/13 00:02:03;;;;;;;5.13;4.68;;;;;;;21.02;63.63;101181.88;5011803;28;20493;-54
2021/08/13 00:04:28;;;;;;;4.97;4.53;;;;;;;21.01;63.76;101188.19;5007487;28;20034;-54
2021/08/13 00:06:53;;;;;;;5.18;4.78;;;;;;;21.00;63.65;101183.75;5008414;28;20133;-54
2021/08/13 00:09:21;;;;;;;5.00;4.60;;;;;;;21.00;63.89;101186.41;5007708;28;20030;-54
2021/08/13 00:11:47;;;;;;;5.22;4.72;;;;;;;21.00;63.76;101183.75;5011363;28;20025;-53
2021/08/13 00:14:13;;;;;;;5.18;4.68;;;;;;;21.00;63.74;101178.38;5010885;28;20076;-54
2021/08/13 00:16:38;;;;;;;5.55;5.05;;;;;;;21.00;63.76;101183.75;5010856;28;20117;-54
2021/08/13 00:19:03;;;;;;;5.25;4.85;;;;;;;21.00;63.73;101178.38;5010986;28;20112;-54
2021/08/13 00:21:29;;;;;;;5.30;4.80;;;;;;;21.01;63.66;101188.19;5010763;28;20021;-54
2021/08/13 00:23:54;;;;;;;5.00;4.50;;;;;;;21.00;63.73;101186.41;5010818;28;21181;-54
2021/08/13 00:26:20;;;;;;;5.03;4.63;;;;;;;20.98;63.75;101189.16;5009644;28;20021;-54
2021/08/13 00:28:45;;;;;;;5.57;5.07;;;;;;;21.00;63.64;101189.09;5014050;28;20113;-54
2021/08/13 00:31:10;;;;;;;5.00;4.55;;;;;;;20.98;63.81;101180.28;5010350;28;20475;-54
2021/08/13 00:33:35;;;;;;;6.97;5.20;;;;;;;20.97;63.73;101191.94;5013206;28;20032;-52
2021/08/13 00:36:01;;;;;;;5.18;4.72;;;;;;;20.98;63.61;101191.84;5003261;28;20033;-54
2021/08/13 00:38:26;;;;;;;5.20;4.72;;;;;;;20.97;63.78;101189.28;5008680;28;20049;-54
2021/08/13 00:40:51;;;;;;;5.85;5.35;;;;;;;20.96;63.87;101192.88;4996681;28;20045;-54
2021/08/13 00:43:17;;;;;;;5.22;4.72;;;;;;;20.96;63.89;101198.22;5010464;28;20030;-54
2021/08/13 00:45:42;;;;;;;6.43;4.85;;;;;;;20.96;63.82;101198.22;5007402;28;20147;-54
2021/08/13 00:48:07;;;;;;;5.15;4.75;;;;;;;20.96;63.93;101199.09;5010354;28;20052;-53
2021/08/13 00:50:33;;;;;;;5.20;4.80;;;;;;;20.96;63.93;101195.53;5010359;28;20030;-54
2021/08/13 00:53:00;;;;;;;6.07;5.47;;;;;;;20.95;63.91;101191.13;5010479;28;20099;-54
2021/08/13 00:55:25;;;;;;;5.18;4.57;;;;;;;20.94;63.93;101192.94;5013188;28;20026;-54
2021/08/13 00:57:50;;;;;;;5.35;4.85;;;;;;;20.94;63.94;101194.75;5015783;28;20469;-53
2021/08/13 01:00:16;;;;;;;5.05;4.55;;;;;;;20.95;63.89;101193.81;4990800;28;20472;-54
2021/08/13 01:02:41;;;;;;;5.55;5.05;;;;;;;20.95;63.98;101191.13;5011445;28;20101;-54
2021/08/13 01:05:07;;;;;;;5.25;4.75;;;;;;;20.94;63.90;101189.41;4992503;28;20018;-54
2021/08/13 01:07:32;;;;;;;5.43;4.93;;;;;;;20.94;63.97;101181.34;5014436;28;20164;-54
2021/08/13 01:09:57;;;;;;;4.95;4.55;;;;;;;20.93;63.98;101182.28;5010695;28;20029;-54
2021/08/13 01:12:30;;;;;;;4.97;4.57;;;;;;;20.92;63.97;101180.53;5017878;28;20025;-54
2021/08/13 01:15:03;;;;;;;6.15;5.55;;;;;;;20.92;63.95;101176.06;4992159;28;20109;-54
2021/08/13 01:17:31;;;;;;;5.40;4.90;;;;;;;20.92;63.86;101175.19;4997546;28;20017;-54
2021/08/13 01:20:14;;;;;;;5.43;5.03;;;;;;;20.92;63.99;101169.81;4992651;28;20033;-54
2021/08/13 01:23:00;;;;;;;5.32;4.82;;;;;;;20.89;64.03;101166.34;4994501;28;20040;-54
2021/08/13 01:25:28;;;;;;;5.30;4.80;;;;;;;20.91;63.97;101165.41;4981599;28;20021;-54
2021/08/13 01:27:55;;;;;;;5.80;5.07;;;;;;;20.91;64.04;101163.59;4995904;28;20473;-54
2021/08/13 01:30:21;;;;;;;5.85;5.10;;;;;;;20.91;64.00;101162.72;5011380;28;20040;-54
2021/08/13 01:33:04;;;;;;;5.95;5.45;;;;;;;20.89;64.03;101161.00;4993826;28;20033;-54
2021/08/13 01:35:34;;;;;;;6.10;5.60;;;;;;;20.90;64.03;101161.84;4992279;28;20053;-54
2021/08/13 01:38:04;;;;;;;5.20;4.75;;;;;;;20.89;64.04;101170.84;4991359;28;20021;-53
2021/08/13 01:40:31;;;;;;;5.35;4.85;;;;;;;20.88;64.11;101164.59;5013220;28;20034;-53
2021/08/13 01:42:58;;;;;;;4.63;4.22;;;;;;;20.88;64.12;101169.94;4993032;28;20053;-53
2021/08/13 01:45:27;;;;;;;5.47;4.97;;;;;;;20.88;64.09;101174.44;5013116;28;20072;-54
2021/08/13 01:47:53;;;;;;;5.65;5.15;;;;;;;20.88;64.03;101169.94;4996207;28;20021;-53
2021/08/13 01:50:19;;;;;;;5.05;4.60;;;;;;;20.88;64.01;101175.31;4996201;28;20097;-52
2021/08/13 01:52:45;;;;;;;5.75;5.25;;;;;;;20.87;64.08;101181.59;5014516;28;20061;-52
2021/08/13 01:55:11;;;;;;;6.22;5.72;;;;;;;20.87;64.04;101178.03;5030487;28;20026;-54
2021/08/13 01:57:37;;;;;;;6.38;5.80;;;;;;;20.87;63.94;101184.28;4978263;28;20477;-54
2021/08/13 02:00:04;;;;;;;5.78;5.00;;;;;;;20.86;64.14;101181.66;5033086;28;20036;-54
2021/08/13 02:02:29;;;;;;;6.00;5.50;;;;;;;20.85;63.99;101179.91;5033275;28;20476;-54
2021/08/13 02:04:55;;;;;;;5.97;5.43;;;;;;;20.85;64.10;101180.81;5032043;28;20086;-54
2021/08/13 02:07:21;;;;;;;5.47;5.03;;;;;;;20.85;64.04;101190.66;5027875;28;20044;-54
2021/08/13 02:09:46;;;;;;;5.88;5.32;;;;;;;20.84;64.11;101187.09;5029323;28;20512;-54
2021/08/13 02:12:12;;;;;;;5.95;5.35;;;;;;;20.84;64.06;101192.44;5014855;28;20021;-54
2021/08/13 02:14:38;;;;;;;6.25;5.65;;;;;;;20.84;64.06;101203.16;5029076;28;20033;-54
2021/08/13 02:17:07;;;;;;;6.35;5.75;;;;;;;20.83;64.29;101204.09;5032966;28;20028;-54
2021/08/13 02:19:47;;;;;;;5.80;5.30;;;;;;;20.82;64.07;101205.06;5002356;28;20040;-54
2021/08/13 02:22:12;;;;;;;5.55;5.05;;;;;;;20.83;63.97;101211.28;5009405;28;20030;-54
2021/08/13 02:24:38;;;;;;;6.18;5.65;;;;;;;20.83;64.12;101208.59;5032432;28;20098;-53
2021/08/13 02:27:04;;;;;;;6.10;5.50;;;;;;;20.82;64.07;101207.75;5015122;28;20461;-54
2021/08/13 02:29:29;;;;;;;5.53;4.97;;;;;;;20.82;64.00;101215.78;5030168;28;20104;-54
2021/08/13 02:31:54;;;;;;;5.75;5.22;;;;;;;20.82;63.98;101215.78;5032683;28;20091;-54
2021/08/13 02:34:20;;;;;;;6.75;5.45;;;;;;;20.81;64.13;101207.81;5029302;28;20025;-54
2021/08/13 02:37:08;;;;;;;5.53;5.03;;;;;;;20.81;64.26;101207.81;5013732;28;20040;-53
2021/08/13 02:39:46;;;;;;;5.57;5.07;;;;;;;20.80;64.08;101208.75;5008391;28;20485;-54
2021/08/13 02:42:13;;;;;;;6.20;5.55;;;;;;;20.80;64.05;101204.25;5014973;28;20049;-53
2021/08/13 02:44:39;;;;;;;5.90;5.22;;;;;;;20.79;64.13;101205.19;5013927;28;20049;-54
2021/08/13 02:47:07;;;;;;;5.97;5.40;;;;;;;20.79;63.98;101199.81;5014805;28;20028;-54
2021/08/13 02:49:36;;;;;;;5.97;5.47;;;;;;;20.77;64.07;101190.97;5021035;28;20065;-54
2021/08/13 02:52:04;;;;;;;5.57;5.07;;;;;;;20.77;64.08;101189.16;5014689;28;20072;-54
2021/08/13 02:54:30;;;;;;;6.93;5.95;;;;;;;20.79;64.00;101185.53;5031772;28;20021;-53
2021/08/13 02:56:57;;;;;;;5.70;5.20;;;;;;;20.77;64.19;101183.81;5012107;28;20036;-54
2021/08/13 02:59:25;;;;;;;5.88;5.38;;;;;;;20.77;64.00;101185.59;5032209;28;20044;-53
2021/08/13 03:01:51;;;;;;;5.28;4.88;;;;;;;20.76;64.02;101181.19;5014286;28;20037;-54
2021/08/13 03:04:17;;;;;;;5.20;4.63;;;;;;;20.76;64.02;101182.06;5015218;28;20030;-54
2021/08/13 03:06:43;;;;;;;5.25;4.85;;;;;;;20.77;63.95;101188.28;5013324;28;20021;-54
2021/08/13 03:09:09;;;;;;;6.07;5.57;;;;;;;20.75;63.96;101188.34;5019294;28;20030;-54
2021/08/13 03:11:37;;;;;;;5.68;5.18;;;;;;;20.75;63.98;101196.41;5031869;28;20029;-54
2021/08/13 03:14:03;;;;;;;6.13;5.63;;;;;;;20.74;63.97;101197.34;5003835;28;20030;-54
2021/08/13 03:16:31;;;;;;;6.03;5.53;;;;;;;20.75;63.90;101190.19;5031723;28;20029;-54
2021/08/13 03:18:56;;;;;;;6.32;5.72;;;;;;;20.75;63.96;101187.50;5010675;28;20021;-53
2021/08/13 03:21:21;;;;;;;6.53;5.95;;;;;;;20.74;64.04;101194.66;5031819;28;20026;-54
2021/08/13 03:23:47;;;;;;;6.15;5.57;;;;;;;20.73;63.86;101206.31;5003420;28;20028;-54
2021/08/13 03:26:14;;;;;;;6.00;5.40;;;;;;;20.74;63.99;101212.56;5028795;28;20029;-54
2021/08/13 03:28:39;;;;;;;5.88;5.28;;;;;;;20.73;63.95;101213.47;5032441;28;20025;-54
2021/08/13 03:31:04;;;;;;;5.95;5.22;;;;;;;20.74;64.04;101208.06;5028446;28;20076;-54
2021/08/13 03:33:30;;;;;;;6.32;5.72;;;;;;;20.73;64.01;101206.31;5025638;28;20068;-54
2021/08/13 03:35:57;;;;;;;6.30;5.70;;;;;;;20.73;64.00;101217.03;5014070;28;20053;-53
2021/08/13 03:38:22;;;;;;;5.75;5.07;;;;;;;20.73;63.92;101210.81;5008861;28;20114;-54
2021/08/13 03:40:48;;;;;;;6.43;5.75;;;;;;;20.72;64.07;101201.03;5028324;28;20080;-54
2021/08/13 03:43:13;;;;;;;6.63;5.90;;;;;;;20.70;64.05;101208.25;5028251;28;20017;-54
2021/08/13 03:45:38;;;;;;;6.90;5.75;;;;;;;20.69;64.01;101198.47;5031067;28;20032;-54
2021/08/13 03:48:04;;;;;;;6.50;5.90;;;;;;;20.69;63.93;101195.78;5031725;28;20025;-54
2021/08/13 03:50:29;;;;;;;6.93;5.65;;;;;;;20.69;64.11;101190.44;5030844;28;20049;-54
2021/08/13 03:52:55;;;;;;;5.95;5.35;;;;;;;20.69;63.85;101187.75;5031257;28;20079;-54
2021/08/13 03:55:20;;;;;;;6.38;5.70;;;;;;;20.68;64.00;101186.03;5017661;28;20156;-54
2021/08/13 03:57:45;;;;;;;6.00;5.22;;;;;;;20.67;63.97;101187.81;5013933;28;20075;-53
2021/08/13 04:00:11;;;;;;;5.85;5.35;;;;;;;20.68;64.04;101183.34;5022796;28;20021;-54
2021/08/13 04:02:37;;;;;;;6.18;5.68;;;;;;;20.67;63.96;101189.66;5003561;28;20014;-52
2021/08/13 04:05:03;;;;;;;6.35;5.75;;;;;;;20.65;63.96;101195.06;5012037;28;20433;-53
2021/08/13 04:07:28;;;;;;;5.97;5.43;;;;;;;20.65;63.95;101197.75;4996468;28;20025;-54
2021/08/13 04:09:53;;;;;;;5.85;5.25;;;;;;;20.64;64.08;101183.47;4994585;28;20072;-54
2021/08/13 04:12:19;;;;;;;6.32;5.72;;;;;;;20.64;63.90;101183.47;5012050;28;20103;-53
2021/08/13 04:14:45;;;;;;;5.95;5.30;;;;;;;20.63;64.11;101184.41;5012063;28;20029;-53
2021/08/13 04:17:10;;;;;;;5.85;5.35;;;;;;;20.63;63.98;101191.56;4995389;28;20068;-54
2021/08/13 04:19:35;;;;;;;6.55;5.95;;;;;;;20.62;63.99;101188.03;5015853;28;20071;-54
2021/08/13 04:22:02;;;;;;;5.95;5.35;;;;;;;20.61;64.03;101183.59;4994220;28;21522;-54
2021/08/13 04:24:27;;;;;;;6.63;5.63;;;;;;;20.61;63.98;101191.63;5013306;28;20061;-54
2021/08/13 04:26:52;;;;;;;6.15;5.55;;;;;;;20.61;64.00;101194.31;5016620;28;20056;-54
2021/08/13 04:29:18;;;;;;;6.40;5.80;;;;;;;20.60;64.04;101203.31;5014198;28;20041;-54
2021/08/13 04:31:43;;;;;;;6.20;5.65;;;;;;;20.60;64.06;101208.66;5013427;28;20610;-54
2021/08/13 04:34:08;;;;;;;6.68;6.00;;;;;;;20.59;63.98;101198.88;4994761;28;20026;-54
2021/08/13 04:36:34;;;;;;;5.65;5.15;;;;;;;20.59;64.04;101201.56;5012374;28;20609;-54
2021/08/13 04:38:59;;;;;;;6.22;5.63;;;;;;;20.59;63.98;101206.94;5007544;28;20025;-54
2021/08/13 04:41:24;;;;;;;5.80;5.20;;;;;;;20.58;64.04;101205.16;5012194;28;20025;-54
2021/08/13 04:43:50;;;;;;;6.00;5.40;;;;;;;20.58;64.00;101204.31;5014729;28;20030;-53
2021/08/13 04:46:15;;;;;;;5.55;5.05;;;;;;;20.58;64.08;101205.16;5043895;22;20095;-52
2021/08/13 04:48:40;;;;;;;6.72;5.53;;;;;;;20.57;64.12;101210.63;5047379;28;20444;-54
2021/08/13 04:51:06;;;;;;;6.35;5.75;;;;;;;20.56;64.07;101207.06;5044686;28;20503;-54
2021/08/13 04:53:31;;;;;;;7.13;5.75;;;;;;;20.55;63.98;101208.00;5036703;28;20036;-53
2021/08/13 04:55:56;;;;;;;5.97;5.43;;;;;;;20.56;64.00;101219.56;5049579;28;20417;-54
2021/08/13 04:58:21;;;;;;;6.45;5.78;;;;;;;20.55;63.95;101208.00;5030692;28;20603;-54
2021/08/13 05:00:48;;;;;;;5.88;5.35;;;;;;;20.54;64.08;101208.91;5048505;28;20037;-55
2021/08/13 05:03:13;;;;;;;6.38;5.30;;;;;;;20.53;64.06;101206.34;5031826;28;20025;-54
2021/08/13 05:05:39;;;;;;;6.93;6.07;;;;;;;20.54;63.99;101214.28;5035600;28;20048;-54
2021/08/13 05:08:04;;;;;;;6.03;5.32;;;;;;;20.54;64.03;101213.41;5031281;28;20029;-54
2021/08/13 05:10:30;;;;;;;6.78;6.10;;;;;;;20.53;64.00;101209.84;5031553;28;20079;-54
2021/08/13 05:12:55;;;;;;;6.38;5.88;;;;;;;20.51;64.09;101209.06;5036480;28;20502;-54
2021/08/13 05:15:20;;;;;;;6.40;5.57;;;;;;;20.52;64.03;101216.16;5031184;28;20021;-52
2021/08/13 05:17:47;;;;;;;6.20;5.65;;;;;;;20.51;63.96;101220.63;5037160;28;20056;-53
2021/08/13 05:20:12;;;;;;;6.45;5.43;;;;;;;20.51;63.92;101220.63;5038192;28;20018;-52
2021/08/13 05:22:38;;;;;;;7.15;5.60;;;;;;;20.53;63.98;101222.41;5029813;28;20060;-52
2021/08/13 05:25:06;;;;;;;5.88;5.38;;;;;;;20.52;64.03;101218.84;5038267;28;20021;-53
2021/08/13 05:27:31;;;;;;;5.57;5.07;;;;;;;20.51;63.98;101217.09;5038992;28;20029;-53
2021/08/13 05:29:57;;;;;;;5.72;5.25;;;;;;;20.51;63.95;101225.16;5039324;28;20048;-52
2021/08/13 05:32:23;;;;;;;5.85;5.35;;;;;;;20.50;63.88;101226.06;5037889;28;20016;-53
2021/08/13 05:34:48;;;;;;;5.88;5.38;;;;;;;20.51;63.90;101230.50;5038188;28;20502;-52
2021/08/13 05:37:13;;;;;;;5.97;5.38;;;;;;;20.50;63.99;101231.41;5039137;28;20029;-52
2021/08/13 05:39:39;;;;;;;6.53;5.95;;;;;;;20.49;63.87;101227.00;5034845;28;20033;-51
2021/08/13 05:42:04;;;;;;;8.05;5.90;;;;;;;20.50;63.96;101242.13;5039566;28;20060;-51
2021/08/13 05:44:30;;;;;;;5.55;5.05;;;;;;;20.50;64.15;101226.06;5039104;28;20029;-53
2021/08/13 05:46:56;;;;;;;5.65;5.15;;;;;;;20.50;63.88;101229.63;5036915;28;20049;-53
2021/08/13 05:49:21;;;;;;;6.50;5.65;;;;;;;20.49;64.06;101227.00;5034499;28;20037;-54
2021/08/13 05:51:46;;;;;;;7.03;6.18;;;;;;;20.50;63.82;101229.63;5037096;28;20025;-54
2021/08/13 05:54:12;;;;;;;6.18;5.57;;;;;;;20.49;63.92;101222.53;5034569;28;20029;-53
2021/08/13 05:56:37;;;;;;;6.35;5.60;;;;;;;20.50;63.95;101213.53;5020794;28;20167;-54
2021/08/13 05:59:03;;;;;;;5.93;5.35;;;;;;;20.50;63.97;101215.34;5033364;28;20113;-53
2021/08/13 06:01:28;;;;;;;6.60;5.50;;;;;;;20.50;63.86;101223.38;5017057;28;20473;-53
2021/08/13 06:03:53;;;;;;;5.80;5.15;;;;;;;20.50;63.83;101220.69;5036810;28;20137;-53
2021/08/13 06:06:19;;;;;;;6.88;6.18;;;;;;;20.49;63.92;101221.66;5017135;28;20017;-53
2021/08/13 06:08:44;;;;;;;6.88;5.82;;;;;;;20.52;63.94;101221.53;5040190;28;20036;-54
2021/08/13 06:11:10;;;;;;;7.03;5.45;;;;;;;20.51;63.82;101222.47;5034046;28;20025;-53
2021/08/13 06:13:35;;;;;;;6.00;5.43;;;;;;;20.51;63.84;101222.47;5033816;28;20025;-52
2021/08/13 06:16:00;;;;;;;5.65;5.10;;;;;;;20.51;63.82;101227.81;5033833;28;20032;-53
2021/08/13 06:18:26;;;;;;;6.85;5.75;;;;;;;20.51;63.62;101217.09;5037375;28;20026;-54
2021/08/13 06:20:51;;;;;;;5.57;5.00;;;;;;;20.52;63.68;101232.25;5017428;28;20025;-54
2021/08/13 06:23:16;;;;;;;6.22;5.63;;;;;;;20.53;63.80;101222.41;5033390;28;20040;-54
2021/08/13 06:25:42;;;;;;;5.78;5.28;;;;;;;20.53;63.85;101217.91;5036511;28;20043;-54
2021/08/13 06:28:07;;;;;;;5.72;5.15;;;;;;;20.52;63.90;101216.16;5037025;28;20033;-54
2021/08/13 06:30:32;;;;;;;6.68;5.50;;;;;;;20.51;63.83;101209.91;5035932;28;20032;-54
2021/08/13 06:33:00;;;;;;;5.47;4.97;;;;;;;20.51;63.86;101204.56;5034336;28;20504;-54
2021/08/13 06:35:25;;;;;;;8.30;5.88;;;;;;;20.52;63.89;101205.44;5032892;28;20029;-54
2021/08/13 06:37:52;;;;;;;9.07;5.30;;;;;;;20.52;63.77;101205.44;5036756;28;20029;-54
2021/08/13 06:40:18;;;;;;;7.88;4.97;;;;;;;20.51;63.81;101217.97;5036586;28;20022;-54
2021/08/13 06:42:44;;;;;;;5.68;5.18;;;;;;;20.52;63.83;101218.84;5034827;28;20044;-54
2021/08/13 06:45:12;;;;;;;5.40;4.90;;;;;;;20.52;63.81;101218.84;5031730;28;20017;-54
2021/08/13 06:47:37;;;;;;;6.25;5.65;;;;;;;20.54;63.69;101224.13;5050903;28;20025;-54
2021/08/13 06:50:04;;;;;;;7.82;5.55;;;;;;;20.57;63.66;101214.16;5040403;28;20032;-53
2021/08/13 06:52:29;;;;;;;5.88;5.25;;;;;;;20.58;63.60;101215.03;5032709;28;20067;-54
2021/08/13 06:54:55;;;;;;;5.65;5.15;;;;;;;20.58;63.71;101210.53;5035630;28;20412;-53
2021/08/13 06:57:20;;;;;;;5.57;5.07;;;;;;;20.56;63.80;101203.50;5040799;28;20036;-54
2021/08/13 06:59:45;;;;;;;6.57;5.32;;;;;;;20.59;63.81;101203.38;5036242;28;20044;-51
2021/08/13 07:02:11;;;;;;;7.05;5.53;;;;;;;20.57;63.83;101203.44;5039031;28;20432;-52
2021/08/13 07:04:36;;;;;;;7.38;5.55;;;;;;;20.56;63.79;101207.06;5036069;28;20043;-51
2021/08/13 07:07:01;;;;;;;5.80;4.72;;;;;;;20.59;63.57;101214.09;5047640;28;20455;-53
2021/08/13 07:09:26;;;;;;;5.57;5.07;;;;;;;20.58;63.71;101209.66;5053738;28;20697;-51
2021/08/13 07:11:52;;;;;;;6.32;5.68;;;;;;;20.61;63.65;101209.53;5033028;28;20045;-51
2021/08/13 07:14:17;;;;;;;5.95;5.45;;;;;;;20.58;63.57;101210.53;5037614;28;20429;-52
2021/08/13 07:16:42;;;;;;;5.90;5.40;;;;;;;20.57;63.67;101216.81;5037128;28;20111;-51
2021/08/13 07:19:08;;;;;;;6.45;5.78;;;;;;;20.60;63.52;101213.13;5038495;28;20025;-52
2021/08/13 07:21:33;;;;;;;5.88;5.32;;;;;;;20.59;63.67;101200.69;5034042;28;20022;-51
2021/08/13 07:23:58;;;;;;;8.02;6.15;;;;;;;20.61;63.67;101210.41;5033921;28;20048;-51
2021/08/13 07:26:24;;;;;;;6.32;5.32;;;;;;;20.60;63.65;101211.34;5034771;28;20051;-52
2021/08/13 07:28:49;;;;;;;6.32;5.55;;;;;;;20.61;63.69;101215.75;5035007;28;20025;-52
2021/08/13 07:31:15;;;;;;;6.78;5.57;;;;;;;20.61;63.76;101212.22;5035403;28;20021;-51
2021/08/13 07:33:40;;;;;;;6.90;5.50;;;;;;;20.65;63.65;101211.16;5034450;28;20556;-52
2021/08/13 07:36:05;;;;;;;5.75;5.18;;;;;;;20.64;63.78;101212.94;5032237;28;20053;-52
2021/08/13 07:38:35;;;;;;;7.38;6.00;;;;;;;20.65;63.78;101211.16;5033596;28;20485;-51
2021/08/13 07:41:00;;;;;;;6.75;6.07;;;;;;;20.67;63.73;101211.94;5035495;28;20052;-52
2021/08/13 07:43:26;;;;;;;6.30;5.38;;;;;;;20.65;63.80;101219.19;5035176;28;20432;-51
2021/08/13 07:45:51;;;;;;;5.93;5.32;;;;;;;20.69;63.94;101222.59;5036341;28;20018;-52
2021/08/13 07:48:16;;;;;;;6.50;5.85;;;;;;;20.67;63.77;101214.63;5016813;28;20127;-52
2021/08/13 07:50:42;;;;;;;6.82;5.82;;;;;;;20.67;63.95;101219.13;5035123;28;20108;-51
2021/08/13 07:53:07;;;;;;;9.18;6.15;;;;;;;20.66;64.13;101217.38;5033203;28;20037;-52
2021/08/13 07:55:32;;;;;;;7.15;6.50;;;;;;;20.67;64.12;101227.16;5035658;28;20024;-51
2021/08/13 07:57:58;;;;;;;6.93;6.35;;;;;;;20.68;64.35;101224.44;5037267;28;20435;-51
2021/08/13 08:00:23;;;;;;;6.90;6.13;;;;;;;20.70;64.19;101222.53;5019071;28;20101;-52
2021/08/13 08:02:48;;;;;;;7.13;6.30;;;;;;;20.71;64.29;101228.78;5018609;28;20094;-52
2021/08/13 08:05:14;;;;;;;10.57;7.00;;;;;;;20.70;64.64;101235.06;5031391;28;20554;-51
2021/08/13 08:07:40;;;;;;;6.97;6.32;;;;;;;20.70;64.41;101229.69;5014651;28;20024;-51
2021/08/13 08:10:05;;;;;;;8.23;6.65;;;;;;;20.71;64.50;101221.59;5032345;28;20044;-50
2021/08/13 08:12:31;;;;;;;8.13;6.70;;;;;;;20.73;64.77;101225.09;5038171;28;20025;-51
2021/08/13 08:14:56;;;;;;;7.10;6.40;;;;;;;20.74;64.96;101225.97;5035384;28;20484;-51
2021/08/13 08:17:21;;;;;;;7.18;6.47;;;;;;;20.74;64.84;101231.34;5017720;28;20041;-52
2021/08/13 08:19:46;;;;;;;8.23;6.70;;;;;;;20.74;64.84;101228.66;5034113;28;20032;-51
2021/08/13 08:22:12;;;;;;;9.23;6.63;;;;;;;20.73;65.00;101235.81;5034123;28;20358;-53
2021/08/13 08:24:37;;;;;;;7.35;6.43;;;;;;;20.74;64.92;101237.53;5031740;28;20632;-52
2021/08/13 08:27:03;;;;;;;7.07;6.38;;;;;;;20.75;65.22;101238.44;5032350;28;20052;-51
2021/08/13 08:29:28;;;;;;;7.22;6.53;;;;;;;20.75;65.17;101233.91;5030465;28;20029;-51
2021/08/13 08:31:54;;;;;;;7.75;6.90;;;;;;;20.76;65.33;101237.47;5022834;28;21594;-51
2021/08/13 08:34:19;;;;;;;7.68;6.68;;;;;;;20.76;65.30;101234.78;5018940;28;20037;-52
2021/08/13 08:36:44;;;;;;;7.25;6.55;;;;;;;20.76;65.33;101238.38;5031693;28;20026;-54
2021/08/13 08:39:09;;;;;;;11.93;6.82;;;;;;;20.79;65.30;101242.72;5031116;28;20025;-53
2021/08/13 08:41:36;;;;;;;9.10;8.02;;;;;;;20.81;65.26;101253.38;5030822;28;20042;-52
2021/08/13 08:44:01;;;;;;;7.50;6.75;;;;;;;20.81;65.19;101256.06;5036086;28;20033;-53
2021/08/13 08:46:27;;;;;;;7.63;6.88;;;;;;;20.81;65.45;101253.38;5034241;28;20389;-54
2021/08/13 08:48:53;;;;;;;7.28;6.57;;;;;;;20.83;65.34;101255.03;5038844;28;20032;-53
2021/08/13 08:51:19;;;;;;;8.40;7.18;;;;;;;20.82;65.69;101245.25;5030729;28;20128;-54
2021/08/13 08:53:53;;;;;;;7.63;6.93;;;;;;;20.84;65.60;101245.19;5030436;28;20560;-54
2021/08/13 08:56:22;;;;;;;8.57;7.60;;;;;;;20.84;65.66;101242.53;5034240;28;20032;-52
2021/08/13 08:58:47;;;;;;;7.78;6.97;;;;;;;20.85;65.64;101239.78;5033692;28;20029;-54
2021/08/13 09:01:14;;;;;;;7.75;6.97;;;;;;;20.86;65.53;101241.50;5014288;28;20021;-54
2021/08/13 09:03:43;;;;;;;8.40;7.45;;;;;;;20.87;65.53;101232.53;5030429;28;20108;-53
2021/08/13 09:06:09;;;;;;;8.52;7.70;;;;;;;20.85;65.70;101231.72;5030438;28;20032;-54
2021/08/13 09:08:35;;;;;;;8.77;7.97;;;;;;;20.86;65.97;101237.94;5013012;28;20444;-54
2021/08/13 09:11:00;;;;;;;7.75;6.95;;;;;;;20.88;65.67;101228.94;5038728;28;20388;-53
2021/08/13 09:13:25;;;;;;;7.97;7.20;;;;;;;20.89;65.73;101230.69;5032230;28;20041;-52
2021/08/13 09:15:55;;;;;;;8.07;7.28;;;;;;;20.88;65.81;101226.25;5031873;28;20066;-52
2021/08/13 09:18:23;;;;;;;8.35;7.55;;;;;;;20.88;65.86;101228.03;5033311;28;20159;-52
2021/08/13 09:20:55;;;;;;;8.85;7.97;;;;;;;20.89;65.90;101230.69;5029947;28;20116;-52
2021/08/13 09:23:33;;;;;;;9.20;8.30;;;;;;;20.91;65.86;101232.44;5038624;28;20415;-53
2021/08/13 09:26:10;;;;;;;9.52;8.52;;;;;;;20.92;65.72;101231.47;5032360;28;20033;-52
2021/08/13 09:28:52;;;;;;;8.20;7.40;;;;;;;20.93;65.95;101235.91;5028507;28;20056;-53
2021/08/13 09:31:28;;;;;;;9.00;8.10;;;;;;;20.92;66.07;101227.00;5010664;28;20018;-52
2021/08/13 09:34:05;;;;;;;9.00;8.20;;;;;;;20.91;66.05;101236.00;5034838;28;20025;-52
2021/08/13 09:36:32;;;;;;;9.32;8.43;;;;;;;20.94;65.79;101229.63;5031825;28;20026;-52
2021/08/13 09:39:09;;;;;;;8.95;8.15;;;;;;;20.95;65.92;101229.56;5034171;28;20439;-52
2021/08/13 09:41:45;;;;;;;8.93;8.13;;;;;;;20.96;65.85;101238.44;5013213;28;20096;-52
2021/08/13 09:44:11;;;;;;;9.43;8.52;;;;;;;20.96;65.91;101238.44;5033139;28;20021;-52
2021/08/13 09:46:36;;;;;;;9.13;8.23;;;;;;;20.98;65.90;101239.25;5034856;28;20032;-52
2021/08/13 09:49:12;;;;;;;8.80;7.72;;;;;;;21.00;66.04;101242.72;5031657;28;20551;-52
2021/08/13 09:51:38;;;;;;;9.88;8.88;;;;;;;20.99;65.97;101236.53;5030563;28;20021;-52
2021/08/13 09:54:05;;;;;;;9.55;8.55;;;;;;;21.00;65.98;101237.38;5015779;28;20022;-52
2021/08/13 09:56:35;;;;;;;9.30;8.48;;;;;;;21.01;66.09;101233.78;5036059;28;20029;-53
2021/08/13 09:59:17;;;;;;;10.20;9.20;;;;;;;21.02;65.89;101233.72;5018590;28;20431;-52
2021/08/13 10:01:44;;;;;;;10.07;9.15;;;;;;;21.01;66.06;101237.31;5030086;28;20087;-51
2021/08/13 10:04:10;;;;;;;9.07;8.18;;;;;;;21.03;65.92;101237.25;5030460;28;20037;-51
2021/08/13 10:06:37;;;;;;;10.65;9.63;;;;;;;21.02;66.13;101235.50;5017787;28;20013;-54
2021/08/13 10:09:03;;;;;;;9.93;8.95;;;;;;;21.06;65.73;101242.47;5034005;28;20018;-54
2021/08/13 10:11:29;;;;;;;9.90;8.88;;;;;;;21.06;65.87;101231.75;5036183;28;20024;-54
2021/08/13 10:13:54;;;;;;;9.65;8.70;;;;;;;21.04;65.89;101236.28;5021433;28;20043;-53
2021/08/13 10:16:25;;;;;;;9.70;8.80;;;;;;;21.04;66.14;101241.66;5016620;28;20580;-54
2021/08/13 10:18:55;;;;;;;10.63;9.52;;;;;;;21.06;65.88;101241.59;5036282;28;20104;-54
2021/08/13 10:21:21;;;;;;;11.05;9.10;;;;;;;21.09;65.83;101236.97;5036421;28;20040;-52
2021/08/13 10:23:46;;;;;;;11.32;9.73;;;;;;;21.06;65.96;101226.38;5036350;28;20039;-51
2021/08/13 10:26:12;;;;;;;11.70;9.23;;;;;;;21.08;66.04;101229.88;5017220;28;20413;-51
2021/08/13 10:28:37;;;;;;;10.00;9.00;;;;;;;21.07;66.10;101219.22;5021492;28;20025;-52
2021/08/13 10:31:03;;;;;;;10.48;9.32;;;;;;;21.08;66.01;101224.50;5018675;28;20030;-52
2021/08/13 10:33:28;;;;;;;10.32;9.32;;;;;;;21.09;66.31;101218.19;5031751;28;20083;-52
2021/08/13 10:35:57;;;;;;;10.27;9.27;;;;;;;21.09;66.04;101218.19;5032684;28;20075;-50
2021/08/13 10:38:25;;;;;;;10.63;9.52;;;;;;;21.13;66.09;101218.91;5035233;28;20024;-50
2021/08/13 10:40:50;;;;;;;10.07;8.90;;;;;;;21.12;65.96;101215.38;5033570;28;20021;-54
2021/08/13 10:43:18;;;;;;;11.93;10.02;;;;;;;21.11;66.07;101208.25;5037852;28;20032;-54
2021/08/13 10:45:43;;;;;;;12.07;9.98;;;;;;;21.14;65.90;101210.81;5017830;28;20029;-54
2021/08/13 10:48:12;;;;;;;11.18;10.00;;;;;;;21.14;65.98;101210.81;5006153;28;20106;-53
2021/08/13 10:50:38;;;;;;;10.93;9.93;;;;;;;21.15;66.06;101209.00;5038626;28;20025;-53
2021/08/13 10:53:03;;;;;;;11.63;10.15;;;;;;;21.15;65.95;101209.88;5038955;28;20024;-53
2021/08/13 10:55:53;;;;;;;10.98;9.82;;;;;;;21.16;66.04;101194.66;5037202;28;20075;-54
2021/08/13 10:58:40;;;;;;;12.63;10.43;;;;;;;21.18;65.73;101200.84;5031321;28;20299;-51
2021/08/13 11:01:13;;;;;;;10.82;9.70;;;;;;;21.19;65.91;101196.31;5032660;28;20422;-53
2021/08/13 11:03:41;;;;;;;10.15;9.20;;;;;;;21.19;65.93;101188.28;5033034;28;20029;-52
2021/08/13 11:06:06;;;;;;;10.55;9.48;;;;;;;21.21;65.79;101197.13;5018385;28;20009;-52
2021/08/13 11:08:41;;;;;;;12.02;9.50;;;;;;;21.19;66.08;101199.88;5037786;28;20465;-52
2021/08/13 11:11:13;;;;;;;11.35;10.15;;;;;;;21.20;66.02;101190.03;5032301;28;20021;-52
2021/08/13 11:13:41;;;;;;;12.93;11.35;;;;;;;21.23;66.07;101184.50;5031607;28;20622;-53
2021/08/13 11:16:31;;;;;;;11.95;10.80;;;;;;;21.25;66.01;101185.31;5039701;28;20043;-53
2021/08/13 11:18:58;;;;;;;12.40;11.10;;;;;;;21.24;65.99;101192.50;5022459;28;20094;-54
2021/08/13 11:21:38;;;;;;;13.40;10.80;;;;;;;21.25;65.89;101183.53;5032571;28;20072;-52
2021/08/13 11:24:08;;;;;;;12.50;11.20;;;;;;;21.27;65.92;101180.75;5018166;28;20027;-52